Time;durP1;ratioP1;P1;durP2;ratioP2;P2;SDS_P1;SDS_P2;PMS_P1;PMS_P2;Temp;Humidity;BMP_temperature;BMP_pressure;BME280_temperature;BME280_humidity;BME280_pressure;Samples;Min_cycle;Max_cycle;Signal;HPM_P1;HPM_P2
2023/01/02 00:01:28;;;;;;;8.50;5.15;;;10.60;99.10;;;9.48;100.00;100637.06;4987886;28;20465;-70
2023/01/02 00:03:56;;;;;;;7.45;5.40;;;10.60;99.40;;;9.51;100.00;100638.78;4987486;28;20061;-70
2023/01/02 00:06:23;;;;;;;8.27;5.15;;;10.60;99.30;;;9.53;100.00;100637.00;4987615;28;20050;-70
2023/01/02 00:08:50;;;;;;;7.90;5.57;;;10.60;99.20;;;9.58;100.00;100631.69;4987305;28;20050;-70
2023/01/02 00:11:18;;;;;;;12.10;5.80;;;11.00;99.30;;;9.55;100.00;100634.38;5003768;28;20070;-70
2023/01/02 00:13:45;;;;;;;7.32;5.47;;;10.70;99.20;;;9.56;100.00;100636.97;5002024;28;20046;-71
2023/01/02 00:16:12;;;;;;;8.48;5.82;;;10.60;99.30;;;9.54;100.00;100637.91;5006774;28;20851;-70
2023/01/02 00:18:39;;;;;;;7.55;5.35;;;10.60;99.10;;;9.53;100.00;100639.63;4983160;28;20040;-71
2023/01/02 00:21:08;;;;;;;9.38;5.38;;;11.80;99.60;;;9.62;100.00;100636.00;4987530;28;20038;-70
2023/01/02 00:23:36;;;;;;;7.43;5.75;;;11.40;99.50;;;9.61;100.00;100632.53;4971471;28;20136;-70
2023/01/02 00:26:05;;;;;;;8.75;5.15;;;10.70;99.40;;;9.53;100.00;100638.78;4987806;28;20478;-70
2023/01/02 00:28:32;;;;;;;9.10;5.70;;;10.60;99.50;;;9.58;100.00;100629.91;4987633;28;20050;-70
2023/01/02 00:31:11;;;;;;;7.60;5.72;;;10.60;99.30;;;9.62;100.00;100615.88;5002175;28;20077;-70
2023/01/02 00:33:38;;;;;;;7.28;5.20;;;10.70;99.40;;;9.59;100.00;100591.41;5006943;28;20057;-70
2023/01/02 00:36:09;;;;;;;9.00;4.65;;;10.70;99.50;;;9.52;100.00;100588.00;5006944;28;20052;-70
2023/01/02 00:38:36;;;;;;;11.60;6.15;;;10.70;99.50;;;9.49;100.00;100599.41;5023303;28;20474;-70
2023/01/02 00:41:05;;;;;;;5.82;4.90;;;10.80;99.70;;;9.59;100.00;100599.28;5006129;28;20041;-71
2023/01/02 00:43:32;;;;;;;10.27;5.43;;;10.70;99.70;;;9.64;100.00;100603.56;5019775;28;20037;-70
2023/01/02 00:45:59;;;;;;;8.60;5.40;;;10.70;99.40;;;9.67;100.00;100591.28;5031614;28;20041;-70
2023/01/02 00:48:33;;;;;;;6.07;4.45;;;10.70;99.50;;;9.69;100.00;100589.47;5031435;28;20064;-70
2023/01/02 00:51:00;;;;;;;7.03;4.90;;;10.80;99.40;;;9.68;100.00;100579.88;5030291;28;20529;-70
2023/01/02 00:53:27;;;;;;;7.15;4.75;;;10.90;99.50;;;9.68;100.00;100588.63;5013700;28;20052;-70
2023/01/02 00:55:55;;;;;;;13.50;5.28;;;10.80;99.40;;;9.77;100.00;100592.84;5046710;28;20061;-70
2023/01/02 00:58:22;;;;;;;6.75;4.82;;;10.80;99.30;;;9.71;100.00;100588.56;5029351;28;20045;-71
2023/01/02 01:00:49;;;;;;;6.28;4.35;;;10.90;99.40;;;9.70;100.00;100589.47;5012978;28;20070;-70
2023/01/02 01:03:17;;;;;;;5.60;4.18;;;10.80;99.50;;;9.68;100.00;100585.13;4990688;28;20272;-70
2023/01/02 01:05:44;;;;;;;5.43;3.90;;;10.80;99.20;;;9.70;100.00;100584.22;5023420;28;20062;-71
2023/01/02 01:08:11;;;;;;;5.90;4.47;;;10.70;99.20;;;9.71;100.00;100577.19;5006515;28;20074;-70
2023/01/02 01:10:39;;;;;;;8.13;5.43;;;10.80;99.20;;;9.67;100.00;100571.09;4990481;28;20046;-71
2023/01/02 01:13:06;;;;;;;7.70;4.47;;;10.90;99.30;;;9.71;100.00;100572.81;5033171;28;20049;-69
2023/01/02 01:15:33;;;;;;;8.82;4.38;;;10.70;99.20;;;9.73;100.00;100575.38;5031254;28;20049;-70
2023/01/02 01:18:00;;;;;;;7.28;4.40;;;10.80;99.30;;;9.63;100.00;100572.94;5013317;28;20456;-70
2023/01/02 01:20:27;;;;;;;6.50;4.07;;;10.90;99.30;;;9.74;100.00;100570.13;5030827;28;20088;-70
2023/01/02 01:22:54;;;;;;;7.72;4.78;;;10.80;99.30;;;9.69;100.00;100571.09;5029317;28;20409;-70
2023/01/02 01:25:21;;;;;;;6.90;4.35;;;10.80;99.20;;;9.62;100.00;100571.19;5029661;28;20049;-70
2023/01/02 01:27:53;;;;;;;7.68;5.97;;;10.80;99.40;;;9.55;100.00;100569.56;5031014;28;20501;-70
2023/01/02 01:30:20;;;;;;;5.93;4.65;;;11.00;99.50;;;9.47;100.00;100571.47;5020352;28;20457;-70
2023/01/02 01:32:47;;;;;;;6.93;4.45;;;10.70;99.60;;;9.55;100.00;100573.97;4993596;28;20065;-70
2023/01/02 01:35:14;;;;;;;6.40;4.38;;;11.10;99.80;;;9.65;100.00;100589.53;5010982;28;20093;-70
2023/01/02 01:37:41;;;;;;;6.05;4.57;;;10.70;99.50;;;9.61;100.00;100579.97;5009462;28;20125;-70
2023/01/02 01:40:09;;;;;;;6.75;4.60;;;10.70;99.60;;;9.58;100.00;100584.41;4993882;28;20063;-70
2023/01/02 01:42:36;;;;;;;5.88;4.32;;;10.70;99.50;;;9.56;100.00;100589.66;5028637;28;20426;-69
2023/01/02 01:45:14;;;;;;;5.75;4.88;;;10.70;99.60;;;9.54;100.00;100585.34;5008145;28;20413;-70
2023/01/02 01:47:52;;;;;;;7.18;4.50;;;10.70;99.50;;;9.57;100.00;100585.31;4977325;28;20072;-70
2023/01/02 01:50:31;;;;;;;10.27;5.40;;;10.60;99.60;;;9.56;100.00;100575.69;5009928;28;20115;-70
2023/01/02 01:53:15;;;;;;;7.03;4.65;;;10.70;99.50;;;9.56;100.00;100573.06;5010436;28;20075;-70
2023/01/02 01:55:58;;;;;;;5.47;4.25;;;10.60;99.40;;;9.63;100.00;100564.16;4993092;28;20077;-70
2023/01/02 01:58:32;;;;;;;7.45;4.72;;;10.60;99.40;;;9.52;100.00;100572.25;4993332;28;20096;-70
2023/01/02 02:01:01;;;;;;;6.72;4.53;;;10.60;99.30;;;9.53;100.00;100566.09;4978621;28;20046;-70
2023/01/02 02:03:32;;;;;;;7.18;5.18;;;10.70;99.50;;;9.46;100.00;100577.59;4990813;28;20604;-70
2023/01/02 02:06:02;;;;;;;9.02;5.85;;;11.60;99.80;;;9.46;100.00;100578.44;4990804;28;20468;-70
2023/01/02 02:08:52;;;;;;;8.05;4.50;;;10.60;99.40;;;9.50;100.00;100567.00;5005543;28;20061;-70
2023/01/02 02:11:20;;;;;;;6.07;4.55;;;10.60;99.40;;;9.53;100.00;100563.47;5005756;28;20042;-70
2023/01/02 02:13:49;;;;;;;7.68;4.72;;;10.60;99.50;;;9.54;100.00;100551.22;5003555;28;20045;-70
2023/01/02 02:16:16;;;;;;;8.35;6.05;;;10.70;99.60;;;9.51;100.00;100566.09;5008908;28;20074;-70
2023/01/02 02:19:27;;;;;;;9.32;5.93;;;10.60;99.50;;;9.42;100.00;100547.88;5010983;28;20117;-70
2023/01/02 02:21:54;;;;;;;10.60;5.68;;;10.50;99.40;;;9.40;100.00;100551.41;5009576;28;20050;-70
2023/01/02 02:24:39;;;;;;;9.27;5.68;;;10.50;99.40;;;9.40;100.00;100557.56;5010376;28;20410;-70
2023/01/02 02:27:45;;;;;;;5.90;5.30;;;10.50;99.30;;;9.44;100.00;100553.97;5007573;28;20502;-70
2023/01/02 02:30:15;;;;;;;7.68;5.15;;;10.50;99.30;;;9.54;100.00;100553.84;5014230;28;20046;-70
2023/01/02 02:33:30;;;;;;;7.05;5.47;;;10.50;99.40;;;9.42;100.00;100540.00;5008557;28;20524;-71
2023/01/02 02:36:05;;;;;;;8.52;5.28;;;10.60;99.30;;;9.38;100.00;100538.34;5018710;28;20061;-70
2023/01/02 02:39:09;;;;;;;5.93;4.88;;;10.60;99.40;;;9.42;100.00;100540.00;5024841;28;20383;-70
2023/01/02 02:41:55;;;;;;;10.00;5.63;;;10.50;99.30;;;9.54;100.00;100535.44;5046541;28;20084;-70
2023/01/02 02:44:46;;;;;;;6.70;5.00;;;10.50;99.30;;;9.56;100.00;100537.13;5048440;28;20045;-70
2023/01/02 02:47:31;;;;;;;5.93;4.18;;;10.50;99.30;;;9.36;100.00;100530.47;5050100;28;20047;-70
2023/01/02 02:50:31;;;;;;;6.80;4.32;;;10.60;99.40;;;9.44;100.00;100535.59;5050185;28;20047;-71
2023/01/02 02:53:10;;;;;;;5.03;4.22;;;10.50;99.20;;;9.52;100.00;100530.22;5033019;28;20060;-70
2023/01/02 02:55:44;;;;;;;9.18;4.43;;;10.60;99.10;;;9.49;100.00;100539.00;5050828;28;20048;-70
2023/01/02 02:58:13;;;;;;;7.88;4.60;;;10.60;99.10;;;9.49;100.00;100538.16;5034003;28;20044;-70
2023/01/02 03:00:43;;;;;;;5.22;4.07;;;10.60;99.50;;;9.57;100.00;100538.03;5037301;28;20107;-70
2023/01/02 03:03:23;;;;;;;6.90;4.10;;;10.60;99.10;;;9.48;100.00;100539.91;5013350;28;20115;-70
2023/01/02 03:06:09;;;;;;;6.82;4.70;;;10.60;99.00;;;9.59;100.00;100544.09;5029292;28;20095;-70
2023/01/02 03:09:04;;;;;;;4.82;4.15;;;10.60;99.00;;;9.50;100.00;100535.47;5029196;28;20053;-70
2023/01/02 03:12:03;;;;;;;6.93;4.25;;;11.20;99.10;;;9.56;100.00;100529.25;5030657;28;20095;-70
2023/01/02 03:15:10;;;;;;;9.50;4.90;;;10.60;99.00;;;9.51;100.00;100529.31;5025628;28;20115;-70
2023/01/02 03:18:11;;;;;;;6.68;4.70;;;10.60;99.00;;;9.59;100.00;100533.59;5029774;28;20054;-70
2023/01/02 03:20:46;;;;;;;5.45;3.95;;;10.60;99.00;;;9.52;100.00;100524.97;5028691;28;20048;-70
2023/01/02 03:23:22;;;;;;;7.45;4.68;;;10.60;99.10;;;9.48;100.00;100526.75;5027576;28;20497;-70
2023/01/02 03:25:50;;;;;;;7.55;4.32;;;10.60;99.10;;;9.47;100.00;100522.41;5026777;28;20145;-70
2023/01/02 03:28:22;;;;;;;6.05;4.53;;;10.50;99.00;;;9.50;100.00;100518.88;5011176;28;20075;-70
2023/01/02 03:30:56;;;;;;;8.82;4.57;;;10.50;99.00;;;9.46;100.00;100525.06;5027870;28;20057;-71
2023/01/02 03:33:31;;;;;;;7.93;5.30;;;10.70;99.00;;;9.39;100.00;100526.94;5027401;28;20081;-70
2023/01/02 03:36:05;;;;;;;5.28;4.13;;;10.50;99.20;;;9.39;100.00;100532.19;5007559;28;20045;-70
2023/01/02 03:38:47;;;;;;;5.57;4.28;;;10.60;99.20;;;9.44;100.00;100532.09;5007326;28;20125;-70
2023/01/02 03:41:23;;;;;;;7.82;4.57;;;10.50;99.40;;;9.52;100.00;100527.59;4987862;28;20637;-71
2023/01/02 03:43:53;;;;;;;5.75;4.30;;;10.50;99.20;;;9.46;100.00;100519.81;5007472;28;20046;-70
2023/01/02 03:46:43;;;;;;;5.43;4.32;;;10.60;99.10;;;9.56;100.00;100518.75;5007326;28;20045;-70
2023/01/02 03:49:31;;;;;;;6.65;4.35;;;10.80;99.10;;;9.54;100.00;100530.19;5007274;28;20096;-70
2023/01/02 03:51:59;;;;;;;7.32;5.05;;;11.00;99.10;;;9.46;100.00;100539.06;4991422;28;20119;-70
2023/01/02 03:54:27;;;;;;;7.30;4.82;;;10.60;99.20;;;9.55;100.00;100532.78;4990933;28;20395;-70
2023/01/02 03:57:32;;;;;;;8.88;4.63;;;10.60;99.20;;;9.45;100.00;100539.09;5007176;28;20045;-70
2023/01/02 04:00:21;;;;;;;7.60;4.75;;;10.50;99.20;;;9.53;100.00;100537.19;5007306;28;20057;-70
2023/01/02 04:03:30;;;;;;;7.72;4.25;;;10.60;99.10;;;9.51;100.00;100541.63;4991560;28;20418;-70
2023/01/02 04:06:09;;;;;;;7.47;4.95;;;10.60;99.30;;;9.47;100.00;100550.44;4958481;28;20113;-70
2023/01/02 04:09:20;;;;;;;4.47;3.67;;;10.60;99.30;;;9.50;100.00;100537.25;4989357;28;20046;-70
2023/01/02 04:11:59;;;;;;;10.88;4.47;;;10.60;99.30;;;9.53;100.00;100549.47;5007828;28;20132;-69
2023/01/02 04:14:40;;;;;;;6.03;4.07;;;10.50;99.10;;;9.51;100.00;100539.84;4989059;28;20046;-70
2023/01/02 04:17:08;;;;;;;;;;;10.50;99.30;;;9.51;100.00;100544.25;5006466;28;20046;-70
2023/01/02 04:20:02;;;;;;;5.93;4.13;;;11.90;99.70;;;9.57;100.00;100546.75;5017574;28;19926;-70
2023/01/02 04:22:41;;;;;;;6.30;4.28;;;10.50;99.20;;;9.55;100.00;100545.91;5011783;28;20062;-70
2023/01/02 04:25:15;;;;;;;6.72;4.20;;;10.60;99.20;;;9.58;100.00;100551.09;4996409;28;20185;-70
2023/01/02 04:28:21;;;;;;;8.52;4.70;;;10.60;99.40;;;9.58;100.00;100545.84;5011210;28;20052;-70
2023/01/02 04:31:02;;;;;;;5.68;4.20;;;10.60;99.20;;;9.54;100.00;100553.84;4997750;28;20057;-70
2023/01/02 04:33:33;;;;;;;7.55;3.70;;;10.60;99.20;;;9.42;100.00;100542.63;4991244;28;20162;-71
2023/01/02 04:36:08;;;;;;;7.18;4.00;;;10.50;99.30;;;9.33;100.00;100538.41;4997724;28;20395;-70
2023/01/02 04:38:36;;;;;;;4.78;4.30;;;10.50;99.30;;;9.36;100.00;100538.34;5010889;28;20046;-70
2023/01/02 04:41:05;;;;;;;6.45;4.18;;;10.50;99.30;;;9.22;100.00;100533.31;5010774;28;20073;-69
2023/01/02 04:43:32;;;;;;;5.77;4.23;;;10.40;99.40;;;9.31;100.00;100532.31;5020974;28;20049;-70
2023/01/02 04:45:59;;;;;;;6.35;4.22;;;10.40;99.30;;;9.30;100.00;100529.69;5030511;28;20615;-70
2023/01/02 04:48:26;;;;;;;6.95;4.53;;;11.70;99.80;;;9.30;100.00;100521.81;5014034;28;20046;-70
2023/01/02 04:50:54;;;;;;;7.10;4.82;;;10.40;99.30;;;9.27;100.00;100521.88;5030475;28;20045;-70
2023/01/02 04:53:21;;;;;;;6.28;4.47;;;11.10;99.60;;;9.18;100.00;100523.75;5013334;28;20142;-70
2023/01/02 04:55:56;;;;;;;5.82;3.97;;;10.30;99.30;;;9.18;100.00;100513.25;5014090;28;20056;-70
2023/01/02 04:58:25;;;;;;;7.35;4.40;;;10.30;99.40;;;9.17;100.00;100526.41;5030743;28;20498;-70
2023/01/02 05:00:53;;;;;;;5.90;4.50;;;10.20;99.50;;;9.05;100.00;100532.69;5015891;28;20510;-69
2023/01/02 05:03:21;;;;;;;5.75;4.15;;;10.20;99.50;;;9.05;100.00;100533.56;5010080;28;20061;-69
2023/01/02 05:05:48;;;;;;;9.90;4.07;;;10.20;99.60;;;9.01;100.00;100536.25;5010878;28;20593;-70
2023/01/02 05:08:15;;;;;;;5.43;4.15;;;10.20;99.50;;;8.91;100.00;100541.66;5010300;28;20046;-70
2023/01/02 05:10:42;;;;;;;10.02;4.28;;;10.20;99.70;;;8.94;100.00;100533.75;5006003;28;20049;-70
2023/01/02 05:13:10;;;;;;;7.65;3.90;;;10.10;99.60;;;8.90;100.00;100531.19;5018358;28;20401;-70
2023/01/02 05:15:36;;;;;;;6.97;4.25;;;10.10;99.70;;;8.93;100.00;100541.63;5030199;28;20061;-71
2023/01/02 05:18:04;;;;;;;6.82;4.15;;;10.10;99.70;;;8.90;100.00;100539.94;5030365;28;20072;-70
2023/01/02 05:20:31;;;;;;;8.32;4.70;;;10.00;99.70;;;8.88;100.00;100539.06;5046605;28;20076;-70
2023/01/02 05:25:44;;;;;;;9.80;5.45;;;10.00;99.70;;;8.79;100.00;100549.69;5031106;28;20050;-70
2023/01/02 05:28:11;;;;;;;5.80;4.47;;;10.00;99.70;;;8.84;100.00;100547.03;5029188;28;20056;-70
2023/01/02 05:30:38;;;;;;;5.10;4.30;;;10.00;99.60;;;8.79;100.00;100558.41;5017208;28;20096;-71
2023/01/02 05:33:05;;;;;;;5.85;4.82;;;10.00;99.80;;;8.78;100.00;100554.06;5010055;28;20533;-70
2023/01/02 05:35:33;;;;;;;8.02;4.28;;;9.90;99.70;;;8.70;100.00;100555.94;5009957;28;20528;-70
2023/01/02 05:38:01;;;;;;;5.57;4.60;;;9.90;99.60;;;8.68;100.00;100565.59;5009945;28;20100;-70
2023/01/02 05:40:28;;;;;;;7.50;5.38;;;9.90;99.70;;;8.65;100.00;100562.97;4993779;28;20119;-70
2023/01/02 05:42:57;;;;;;;8.07;4.93;;;10.50;99.90;;;8.71;100.00;100568.16;4992903;28;20038;-70
2023/01/02 05:45:25;;;;;;;7.57;5.20;;;9.90;99.70;;;8.72;100.00;100580.41;5010079;28;20041;-70
2023/01/02 05:47:53;;;;;;;8.05;4.70;;;10.10;99.90;;;8.68;100.00;100585.69;5009848;28;20046;-70
2023/01/02 05:50:20;;;;;;;9.90;5.05;;;9.80;99.90;;;8.69;100.00;100584.81;5010131;28;20081;-70
2023/01/02 05:52:47;;;;;;;6.93;5.10;;;9.80;99.80;;;8.61;100.00;100580.53;5009302;28;20048;-70
2023/01/02 05:55:14;;;;;;;6.53;5.82;;;10.30;99.90;;;8.58;100.00;100588.41;4993313;28;20049;-70
2023/01/02 05:57:41;;;;;;;7.05;5.05;;;9.80;99.70;;;8.49;100.00;100589.38;5010607;28;20054;-70
2023/01/02 06:00:09;;;;;;;10.18;5.10;;;9.80;99.70;;;8.51;100.00;100595.53;5009188;28;20054;-70
2023/01/02 06:02:40;;;;;;;6.95;5.35;;;9.70;99.80;;;8.44;100.00;100593.81;5024606;28;20046;-70
2023/01/02 06:05:13;;;;;;;8.63;5.93;;;9.70;99.90;;;8.43;100.00;100599.06;4993976;28;20045;-71
2023/01/02 06:07:41;;;;;;;8.82;5.78;;;9.60;99.90;;;8.44;100.00;100604.28;5025252;28;20057;-69
2023/01/02 06:10:09;;;;;;;6.40;5.68;;;9.60;99.90;;;8.47;100.00;100614.75;5025474;28;20119;-70
2023/01/02 06:12:36;;;;;;;7.60;5.63;;;9.60;99.90;;;8.45;100.00;100607.81;5025172;28;20053;-69
2023/01/02 06:15:03;;;;;;;7.50;5.57;;;9.60;99.90;;;8.38;100.00;100609.63;5025375;28;20144;-70
2023/01/02 06:17:30;;;;;;;8.77;5.45;;;9.60;99.90;;;8.31;100.00;100611.44;5008667;28;20131;-70
2023/01/02 06:19:57;;;;;;;7.07;4.68;;;9.60;99.90;;;8.37;100.00;100613.13;5009967;28;20054;-70
2023/01/02 06:22:24;;;;;;;6.60;4.32;;;9.50;99.90;;;8.39;100.00;100608.72;5008904;28;20510;-70
2023/01/02 06:24:51;;;;;;;5.97;4.47;;;9.50;99.90;;;8.34;100.00;100613.13;5008422;28;20410;-70
2023/01/02 06:27:18;;;;;;;6.95;5.10;;;9.60;99.90;;;8.31;100.00;100621.03;5008993;28;20414;-70
2023/01/02 06:29:45;;;;;;;5.43;4.63;;;9.50;99.90;;;8.32;100.00;100614.91;5008748;28;20129;-70
2023/01/02 06:32:12;;;;;;;5.72;4.60;;;9.50;99.90;;;8.42;100.00;100610.44;5010076;28;20046;-69
2023/01/02 06:34:39;;;;;;;11.75;6.15;;;9.50;99.80;;;8.32;100.00;100620.16;4992618;28;20076;-70
2023/01/02 06:37:06;;;;;;;6.43;4.55;;;9.50;99.90;;;8.27;100.00;100616.72;5008654;28;20049;-70
2023/01/02 06:39:36;;;;;;;6.80;4.47;;;9.50;99.90;;;8.31;100.00;100619.31;4976466;28;20096;-70
2023/01/02 06:42:04;;;;;;;6.07;4.40;;;9.60;99.90;;;8.35;100.00;100627.97;5009447;28;20517;-70
2023/01/02 06:44:31;;;;;;;5.47;4.47;;;9.70;99.90;;;8.44;100.00;100633.13;5027892;28;20045;-70
2023/01/02 06:46:58;;;;;;;8.90;3.97;;;9.50;99.90;;;8.47;100.00;100633.09;4999469;28;20049;-70
2023/01/02 06:49:26;;;;;;;6.43;3.90;;;9.60;99.90;;;8.35;100.00;100636.72;5008573;28;20325;-70
2023/01/02 06:51:53;;;;;;;6.85;4.35;;;9.50;99.80;;;8.46;100.00;100649.72;5009384;28;20470;-70
2023/01/02 06:54:20;;;;;;;7.60;4.38;;;10.80;99.90;;;8.42;100.00;100642.78;4992091;28;20120;-70
2023/01/02 06:56:47;;;;;;;7.65;5.00;;;9.60;99.90;;;8.45;100.00;100647.13;5008400;28;20047;-70
2023/01/02 06:59:14;;;;;;;7.80;4.15;;;10.10;99.90;;;8.45;100.00;100644.50;5008125;28;20461;-70
2023/01/02 07:01:41;;;;;;;9.60;5.18;;;9.60;99.90;;;8.44;100.00;100651.50;5007840;28;20528;-70
2023/01/02 07:04:15;;;;;;;10.82;5.03;;;9.60;99.90;;;8.52;100.00;100643.56;5024571;28;20046;-70
2023/01/02 07:06:44;;;;;;;8.45;5.28;;;10.10;99.90;;;8.54;100.00;100649.66;5009977;28;20058;-70
2023/01/02 07:09:11;;;;;;;9.43;5.80;;;10.00;99.90;;;8.55;100.00;100654.03;5027787;28;20049;-69
2023/01/02 07:11:38;;;;;;;7.75;6.57;;;9.70;99.90;;;8.55;100.00;100650.56;5024419;28;20133;-68
2023/01/02 07:14:05;;;;;;;10.10;5.68;;;9.60;99.90;;;8.56;100.00;100653.13;5017848;28;20612;-70
2023/01/02 07:16:32;;;;;;;8.13;5.93;;;9.70;99.90;;;8.57;100.00;100649.63;5009498;28;20113;-71
2023/01/02 07:18:59;;;;;;;9.60;6.38;;;9.70;99.80;;;8.64;100.00;100653.94;5007475;28;20133;-70
2023/01/02 07:21:26;;;;;;;9.35;5.75;;;9.70;99.90;;;8.62;100.00;100658.34;5007981;28;20060;-70
2023/01/02 07:23:54;;;;;;;10.05;5.75;;;9.70;99.70;;;8.58;100.00;100661.84;5009392;28;20057;-70
2023/01/02 07:26:21;;;;;;;9.95;6.35;;;9.70;99.90;;;8.62;100.00;100665.31;5008402;28;20045;-70
2023/01/02 07:28:48;;;;;;;7.82;5.72;;;10.30;99.90;;;8.68;100.00;100664.38;5008096;28;20053;-70
2023/01/02 07:31:18;;;;;;;8.65;5.18;;;9.70;99.90;;;8.73;100.00;100665.19;5008220;28;20046;-71
2023/01/02 07:33:45;;;;;;;7.78;4.97;;;9.80;99.80;;;8.70;100.00;100662.63;5008029;28;20528;-70
2023/01/02 07:36:16;;;;;;;6.78;4.50;;;10.10;99.80;;;8.71;100.00;100666.97;5007682;28;20092;-70
2023/01/02 07:38:48;;;;;;;5.65;4.32;;;9.80;99.90;;;8.62;100.00;100668.81;5008826;28;20049;-70
2023/01/02 07:41:18;;;;;;;6.15;4.95;;;9.80;99.80;;;8.71;100.00;100670.47;4993305;28;20049;-71
2023/01/02 07:43:46;;;;;;;8.02;5.97;;;9.80;99.80;;;8.61;100.00;100661.84;5004664;28;20049;-70
2023/01/02 07:46:18;;;;;;;6.53;5.15;;;9.80;99.90;;;8.53;100.00;100679.41;5027867;28;20407;-70
2023/01/02 07:48:47;;;;;;;7.70;6.53;;;9.70;99.90;;;8.61;100.00;100674.09;4995427;28;20073;-70
2023/01/02 07:51:14;;;;;;;7.38;6.13;;;9.70;99.90;;;8.62;100.00;100678.44;5010483;28;20049;-70
2023/01/02 07:53:48;;;;;;;9.18;6.13;;;9.70;99.90;;;8.70;100.00;100686.22;5018410;28;20050;-70
2023/01/02 07:56:15;;;;;;;7.93;5.63;;;9.70;99.80;;;8.60;100.00;100683.72;4987879;28;20050;-70
2023/01/02 07:58:42;;;;;;;7.43;5.80;;;9.70;99.80;;;8.55;100.00;100690.75;5004154;28;20545;-70
2023/01/02 08:01:11;;;;;;;8.45;5.18;;;9.90;99.90;;;8.64;100.00;100688.03;4989164;28;20070;-70
2023/01/02 08:03:45;;;;;;;6.60;5.38;;;9.70;99.80;;;8.69;100.00;100687.13;4988071;28;20038;-70
2023/01/02 08:06:15;;;;;;;8.10;5.50;;;9.80;99.80;;;8.67;100.00;100687.16;4988473;28;20047;-70
2023/01/02 08:08:42;;;;;;;7.68;5.05;;;9.80;99.80;;;8.64;100.00;100689.78;4988196;28;20450;-71
2023/01/02 08:11:13;;;;;;;8.63;4.93;;;9.80;99.90;;;8.69;100.00;100692.34;4987541;28;20052;-70
2023/01/02 08:13:41;;;;;;;7.93;5.78;;;9.80;99.80;;;8.78;100.00;100692.28;4981160;28;20147;-70
2023/01/02 08:16:18;;;;;;;7.28;5.20;;;10.10;99.80;;;8.84;100.00;100694.81;4971696;28;20050;-70
2023/01/02 08:18:46;;;;;;;8.07;5.32;;;9.80;99.70;;;8.79;100.00;100694.00;4987791;28;20050;-70
2023/01/02 08:21:13;;;;;;;6.57;5.13;;;9.90;99.70;;;8.83;100.00;100693.06;5003818;28;20054;-70
2023/01/02 08:23:40;;;;;;;8.68;6.07;;;9.90;99.60;;;8.80;100.00;100704.47;5003656;28;20716;-70
2023/01/02 08:26:09;;;;;;;7.63;5.32;;;9.90;99.70;;;8.85;100.00;100712.28;4987649;28;20039;-70
2023/01/02 08:28:39;;;;;;;9.98;5.10;;;10.10;99.70;;;8.91;100.00;100719.22;4987427;28;20070;-70
2023/01/02 08:31:18;;;;;;;7.22;5.80;;;9.90;99.60;;;8.87;100.00;100734.13;4999354;28;20051;-70
2023/01/02 08:33:46;;;;;;;7.53;5.57;;;10.10;99.80;;;8.84;100.00;100730.69;5019606;28;20411;-70
2023/01/02 08:36:13;;;;;;;8.55;5.55;;;10.00;99.70;;;8.97;100.00;100742.75;4987559;28;20049;-70
2023/01/02 08:38:41;;;;;;;9.80;6.10;;;10.00;99.70;;;9.00;100.00;100737.50;4988983;28;20129;-70
2023/01/02 08:41:09;;;;;;;7.47;5.95;;;10.00;99.70;;;9.11;100.00;100736.47;4988884;28;20126;-70
2023/01/02 08:43:36;;;;;;;9.70;6.05;;;10.10;99.50;;;9.15;100.00;100744.31;5026218;28;20045;-70
2023/01/02 08:46:06;;;;;;;9.00;5.63;;;10.40;99.50;;;9.15;100.00;100752.19;5007188;28;20119;-70
2023/01/02 08:48:34;;;;;;;9.00;5.43;;;10.20;99.50;;;9.35;100.00;100744.06;5006810;28;20108;-70
2023/01/02 08:51:03;;;;;;;6.95;5.85;;;10.80;99.60;;;9.45;100.00;100752.69;5007104;28;20220;-70
2023/01/02 08:53:30;;;;;;;9.18;5.50;;;10.40;99.20;;;9.55;100.00;100749.97;5023199;28;20042;-70
2023/01/02 08:56:27;;;;;;;10.60;5.63;;;10.40;99.30;;;9.64;100.00;100755.94;4991307;28;20045;-70
2023/01/02 08:58:55;;;;;;;9.52;5.57;;;10.50;99.20;;;9.72;100.00;100753.22;5007062;28;20088;-70
2023/01/02 09:01:25;;;;;;;7.90;4.97;;;10.60;99.10;;;9.65;100.00;100757.69;5023005;28;20050;-70
2023/01/02 09:03:54;;;;;;;10.40;6.72;;;10.60;99.10;;;9.74;100.00;100764.56;5008293;28;20058;-70
2023/01/02 09:06:24;;;;;;;8.48;6.03;;;10.70;99.00;;;9.85;100.00;100750.41;5010602;28;20137;-69
2023/01/02 09:08:54;;;;;;;10.75;5.78;;;10.70;98.90;;;9.89;100.00;100767.88;5010925;28;20070;-70
2023/01/02 09:11:34;;;;;;;11.85;7.47;;;10.80;98.80;;;9.96;100.00;100779.16;5010429;28;20042;-70
2023/01/02 09:14:03;;;;;;;66.35;54.60;;;10.90;98.70;;;10.01;100.00;100775.56;5010471;28;20461;-70
2023/01/02 09:16:31;;;;;;;18.08;13.65;;;10.90;98.60;;;10.14;100.00;100781.50;5010384;28;20131;-70
2023/01/02 09:19:00;;;;;;;12.45;7.93;;;11.10;98.40;;;10.23;100.00;100780.47;5010262;28;20049;-70
2023/01/02 09:21:28;;;;;;;30.20;20.90;;;11.00;98.20;;;10.28;100.00;100783.91;5010179;28;20065;-70
2023/01/02 09:23:55;;;;;;;19.70;13.32;;;11.10;98.10;;;10.43;100.00;100774.06;5010369;28;20068;-70
2023/01/02 09:26:23;;;;;;;12.98;11.00;;;11.20;97.80;;;10.52;100.00;100770.41;5010902;28;20069;-70
2023/01/02 09:28:50;;;;;;;12.68;8.13;;;11.30;97.40;;;10.67;100.00;100779.81;4994518;28;20077;-70
2023/01/02 09:31:18;;;;;;;13.40;6.93;;;12.00;97.20;;;10.80;100.00;100770.78;5010246;28;20116;-71
2023/01/02 09:33:46;;;;;;;14.27;6.43;;;11.70;96.60;;;10.83;100.00;100785.63;5010209;28;20384;-70
2023/01/02 09:36:17;;;;;;;15.70;5.80;;;11.60;96.50;;;10.89;100.00;100783.75;4977724;28;20726;-71
2023/01/02 09:38:57;;;;;;;10.13;5.32;;;11.70;95.90;;;10.95;100.00;100789.84;4993834;28;20042;-70
2023/01/02 09:41:48;;;;;;;;;;;11.70;96.10;;;10.96;100.00;100795.03;5010608;28;20041;-71
2023/01/02 09:44:23;;;;;;;15.45;12.23;;;11.70;95.60;;;11.10;100.00;100805.34;5025337;28;19928;-70
2023/01/02 09:47:04;;;;;;;15.27;11.20;;;11.80;95.10;;;11.20;100.00;100806.03;5013025;28;20144;-70
2023/01/02 09:49:57;;;;;;;;;;;11.90;95.10;;;11.23;100.00;100807.72;5030288;28;20056;-70
2023/01/02 09:52:44;;;;;;;16.05;6.03;;;11.90;94.90;;;11.27;100.00;100805.00;5031021;28;19925;-70
2023/01/02 09:55:40;;;;;;;9.18;4.60;;;12.00;94.70;;;11.37;100.00;100810.09;5013536;28;20271;-70
2023/01/02 09:58:37;;;;;;;10.65;5.72;;;12.10;94.50;;;11.38;100.00;100815.31;5014642;28;20486;-70
2023/01/02 10:01:11;;;;;;;8.93;4.75;;;12.10;94.60;;;11.40;100.00;100804.75;5031037;28;20049;-71
2023/01/02 10:04:24;;;;;;;9.20;5.75;;;12.10;94.40;;;11.49;100.00;100808.06;5029551;28;20589;-70
2023/01/02 10:07:03;;;;;;;9.57;5.40;;;12.20;94.20;;;11.48;100.00;100805.47;5046063;28;20053;-70
2023/01/02 10:09:43;;;;;;;13.95;5.43;;;12.30;94.20;;;11.47;100.00;100808.97;5046116;28;20057;-70
2023/01/02 10:12:23;;;;;;;7.82;5.35;;;12.20;94.30;;;11.50;100.00;100819.47;5012476;28;20127;-70
2023/01/02 10:15:06;;;;;;;11.25;5.10;;;12.30;94.40;;;11.54;100.00;100821.16;4989183;28;20054;-71
2023/01/02 10:17:44;;;;;;;7.47;4.80;;;12.30;94.40;;;11.60;100.00;100823.63;5006191;28;20100;-70
2023/01/02 10:20:31;;;;;;;11.60;3.75;;;12.30;94.20;;;11.81;100.00;100821.47;5005737;28;20136;-71
2023/01/02 10:23:05;;;;;;;7.90;3.95;;;12.70;93.80;;;11.87;100.00;100813.41;5005499;28;20523;-70
2023/01/02 10:25:41;;;;;;;12.88;8.20;;;12.60;93.70;;;11.90;100.00;100818.59;5005569;28;20418;-71
2023/01/02 10:29:06;;;;;;;8.15;4.80;;;12.90;93.60;;;12.07;100.00;100820.03;4989679;28;20053;-70
2023/01/02 10:31:42;;;;;;;7.93;5.32;;;12.70;93.10;;;12.07;100.00;100817.38;5023525;28;20076;-70
2023/01/02 10:34:23;;;;;;;11.45;4.10;;;12.80;93.30;;;12.17;100.00;100816.28;5009109;28;20121;-71
2023/01/02 10:36:50;;;;;;;10.35;4.82;;;12.80;92.80;;;12.27;100.00;100816.91;5009333;28;20037;-71
2023/01/02 10:39:32;;;;;;;8.13;3.78;;;12.90;92.60;;;12.29;100.00;100816.91;4992788;28;20108;-70
2023/01/02 10:41:59;;;;;;;9.25;3.95;;;13.00;92.50;;;12.51;100.00;100808.44;4991192;28;20501;-70